This is the latest recevied weather packets stored in our database for station/object 9M2MIN-1. If no packets are shown the sender has not sent any weather packets the latest 10 day(s).
| Time | Temp. | Humidity | Pressure | Rain* | Wind** | Luminosity | Snow |
|---|---|---|---|---|---|---|---|
| 1777621590 | 33.33° C | 66% | 1006.4 hPa | - | - | - | - |
| 1777620757 | 32.78° C | 68% | 1006.6 hPa | - | - | - | - |
| 1777620689 | 32.78° C | 68% | 1006.6 hPa | - | - | - | - |
| 1777619848 | 33.33° C | 65% | 1006.6 hPa | - | - | - | - |
| 1777619789 | 33.33° C | 65% | 1006.6 hPa | - | - | - | - |
| 1777618889 | 32.78° C | 67% | 1006.8 hPa | - | - | - | - |
| 1777617989 | 33.89° C | 64% | 1007 hPa | - | - | - | - |
| 1777617146 | 33.33° C | 68% | 1007.4 hPa | - | - | - | - |
| 1777617089 | 33.33° C | 68% | 1007.4 hPa | - | - | - | - |
| 1777616290 | 33.33° C | 69% | 1007.8 hPa | - | - | - | - |
| 1777616189 | 33.33° C | 69% | 1007.8 hPa | - | - | - | - |
| 1777615440 | 32.78° C | 72% | 1008.2 hPa | - | - | - | - |
| 1777615289 | 32.78° C | 72% | 1008.2 hPa | - | - | - | - |
| 1777614389 | 33.33° C | 71% | 1008.5 hPa | - | - | - | - |
| 1777613543 | 32.22° C | 75% | 1008.7 hPa | - | - | - | - |
| 1777613489 | 32.22° C | 75% | 1008.7 hPa | - | - | - | - |
| 1777612589 | 32.22° C | 77% | 1009.1 hPa | - | - | - | - |
| 1777611730 | 32.22° C | 81% | 1009.6 hPa | - | - | - | - |
| 1777611689 | 32.22° C | 81% | 1009.6 hPa | - | - | - | - |
| 1777610954 | 31.67° C | 83% | 1009.6 hPa | - | - | - | - |
| 1777610789 | 31.67° C | 83% | 1009.6 hPa | - | - | - | - |
| 1777609888 | 31.67° C | 86% | 1010 hPa | - | - | - | - |
| 1777609089 | 31.11° C | 86% | 1010.4 hPa | - | - | - | - |
| 1777608988 | 31.11° C | 86% | 1010.4 hPa | - | - | - | - |
| 1777608156 | 31.11° C | 86% | 1010.6 hPa | - | - | - | - |
* Rain since midnight (hover to see other rain measurements)
** Current wind speed in m/s (hover to see current wind gust speed)